Time;durP1;ratioP1;P1;durP2;ratioP2;P2;SDS_P1;SDS_P2;PMS_P1;PMS_P2;Temp;Humidity;BMP_temperature;BMP_pressure;BME280_temperature;BME280_humidity;BME280_pressure;Samples;Min_cycle;Max_cycle;Signal;HPM_P1;HPM_P2
2022/07/31 00:00:58;;;;;;;7.30;5.53;;;;;;;15.31;92.84;100090.38;2268988;78;29683;-62
2022/07/31 00:04:00;;;;;;;9.88;5.47;;;;;;;15.32;92.98;100090.28;2227975;78;27736;-63
2022/07/31 00:07:01;;;;;;;6.42;5.75;;;;;;;15.31;92.90;100092.61;2226415;80;29270;-64
2022/07/31 00:10:03;;;;;;;5.25;4.83;;;;;;;15.35;93.05;100093.23;2226845;80;31785;-64
2022/07/31 00:13:05;;;;;;;8.88;5.85;;;;;;;15.38;93.27;100098.92;2253697;78;33739;-63
2022/07/31 00:16:06;;;;;;;7.62;5.25;;;;;;;15.42;93.27;100101.75;2269284;78;28995;-65
2022/07/31 00:19:07;;;;;;;5.70;5.22;;;;;;;15.46;93.22;100107.30;2269621;78;27649;-65
2022/07/31 00:22:08;;;;;;;7.22;5.30;;;;;;;15.38;93.32;100090.82;2269282;78;29023;-65
2022/07/31 00:25:12;;;;;;;6.80;5.33;;;;;;;15.38;93.32;100090.82;2269379;78;31047;-65
2022/07/31 00:28:13;;;;;;;5.40;4.72;;;;;;;15.51;93.06;100110.53;2269285;78;32955;-66
2022/07/31 00:31:14;;;;;;;6.72;5.53;;;;;;;15.54;93.09;100106.73;2269474;78;29409;-64
2022/07/31 00:34:16;;;;;;;8.90;5.00;;;;;;;15.53;92.80;100108.59;2269592;78;27653;-63
2022/07/31 00:37:17;;;;;;;8.53;5.00;;;;;;;15.31;92.55;100070.14;2239400;78;28432;-64
2022/07/31 00:40:18;;;;;;;6.03;4.30;;;;;;;15.45;92.55;100106.45;2269370;78;31365;-63
2022/07/31 00:43:20;;;;;;;4.72;4.33;;;;;;;15.43;92.59;100110.22;2268956;78;33401;-64
2022/07/31 00:46:21;;;;;;;5.50;4.80;;;;;;;15.41;92.62;100104.07;2269516;78;29168;-64
2022/07/31 00:49:23;;;;;;;5.30;4.70;;;;;;;15.40;92.46;100112.67;2237939;79;27707;-63
2022/07/31 00:52:25;;;;;;;4.83;4.30;;;;;;;15.37;92.61;100106.14;2269249;78;29955;-63
2022/07/31 00:55:26;;;;;;;4.50;4.10;;;;;;;15.26;92.69;100089.38;2269051;78;31030;-63
2022/07/31 00:58:28;;;;;;;5.12;4.62;;;;;;;15.36;92.69;100104.91;2269221;78;33395;-63
2022/07/31 01:01:29;;;;;;;5.90;4.35;;;;;;;15.35;92.67;100114.83;2237604;79;30083;-64
2022/07/31 01:04:31;;;;;;;4.55;4.15;;;;;;;15.35;92.78;100113.48;2269419;78;27599;-64
2022/07/31 01:07:33;;;;;;;4.70;4.25;;;;;;;15.35;92.73;100105.38;2237586;79;29875;-63
2022/07/31 01:10:55;;;;;;;4.80;4.20;;;;;;;15.33;92.69;100106.86;2269001;78;31223;-63
2022/07/31 01:14:01;;;;;;;4.35;3.72;;;;;;;15.31;92.79;100106.11;2268416;78;34045;-63
2022/07/31 01:17:03;;;;;;;5.25;4.22;;;;;;;15.32;92.77;100111.00;2269671;78;29049;-63
2022/07/31 01:20:07;;;;;;;4.60;4.20;;;;;;;15.31;92.79;100104.75;2269371;78;27665;-64
2022/07/31 01:23:43;;;;;;;4.60;4.05;;;;;;;15.31;92.76;100108.80;2269428;78;28694;-63
2022/07/31 01:26:58;;;;;;;6.33;4.62;;;;;;;15.31;92.80;100112.85;2268983;78;31461;-63
2022/07/31 01:30:02;;;;;;;5.35;4.75;;;;;;;15.30;92.72;100107.08;2264762;78;34307;-63
2022/07/31 01:33:07;;;;;;;5.80;4.10;;;;;;;15.30;92.80;100102.18;2269386;78;28945;-63
2022/07/31 01:36:14;;;;;;;4.25;3.85;;;;;;;15.30;92.80;100092.73;2269080;78;28218;-63
2022/07/31 01:39:19;;;;;;;5.60;4.20;;;;;;;15.28;92.74;100092.83;2269335;78;28900;-63
2022/07/31 01:42:23;;;;;;;6.70;4.37;;;;;;;15.28;92.73;100094.17;2239336;78;31522;-63
2022/07/31 01:45:26;;;;;;;5.05;4.45;;;;;;;15.29;92.79;100107.20;2269300;78;32489;-62
2022/07/31 01:48:28;;;;;;;7.47;4.37;;;;;;;15.29;92.84;100111.25;2269243;78;29022;-62
2022/07/31 01:51:31;;;;;;;6.55;5.30;;;;;;;15.27;92.87;100105.95;2213402;78;27649;-62
2022/07/31 01:54:34;;;;;;;5.33;4.70;;;;;;;15.27;92.83;100106.45;2269220;78;28465;-62
2022/07/31 01:57:36;;;;;;;6.80;4.62;;;;;;;15.26;92.81;100100.67;2260937;78;31086;-62
2022/07/31 02:00:38;;;;;;;7.00;4.28;;;;;;;15.22;92.77;100097.34;2220038;80;34305;-62
2022/07/31 02:03:40;;;;;;;9.05;4.62;;;;;;;15.24;92.81;100102.61;2201924;80;29430;-63
2022/07/31 02:06:42;;;;;;;7.03;4.47;;;;;;;15.23;92.73;100102.23;2222714;80;27589;-63
2022/07/31 02:09:44;;;;;;;6.45;4.40;;;;;;;15.20;92.39;100101.98;2222506;80;27905;-63
2022/07/31 02:12:45;;;;;;;5.15;4.70;;;;;;;15.20;92.39;100101.98;2196346;81;31676;-63
2022/07/31 02:15:48;;;;;;;5.60;4.90;;;;;;;15.08;92.71;100092.93;2242504;79;33333;-63
2022/07/31 02:18:50;;;;;;;6.15;4.92;;;;;;;15.19;92.77;100102.45;2242599;79;29565;-63
2022/07/31 02:21:52;;;;;;;6.50;5.12;;;;;;;15.19;92.78;100101.10;2242345;79;27655;-62
2022/07/31 02:24:53;;;;;;;6.35;4.92;;;;;;;15.18;92.79;100100.73;2242610;79;28133;-62
2022/07/31 02:27:57;;;;;;;7.25;5.22;;;;;;;15.17;92.75;100100.84;2242124;79;32341;-63
2022/07/31 02:31:00;;;;;;;7.10;4.97;;;;;;;15.16;92.77;100101.32;2224282;78;33753;-63
2022/07/31 02:34:01;;;;;;;7.47;4.70;;;;;;;15.14;92.68;100097.86;2163825;82;30193;-63
2022/07/31 02:37:03;;;;;;;11.57;5.20;;;;;;;15.13;92.68;100092.13;2183789;81;27685;-63
2022/07/31 02:40:07;;;;;;;6.65;5.42;;;;;;;15.06;92.71;100081.88;2164476;82;28841;-63
2022/07/31 02:43:10;;;;;;;8.30;5.55;;;;;;;15.13;92.75;100096.17;2182739;81;31192;-63
2022/07/31 02:46:14;;;;;;;6.55;5.40;;;;;;;15.15;92.76;100100.09;2182656;81;34364;-63
2022/07/31 02:49:15;;;;;;;5.43;4.87;;;;;;;15.13;92.72;100088.55;2183314;81;29813;-63
2022/07/31 02:52:17;;;;;;;9.55;5.58;;;;;;;15.14;92.79;100094.31;2183269;81;27689;-63
2022/07/31 02:55:18;;;;;;;6.97;4.37;;;;;;;15.11;92.71;100095.88;2183489;81;28058;-63
2022/07/31 02:58:20;;;;;;;5.60;4.90;;;;;;;15.11;92.69;100098.58;2191518;80;31397;-63
2022/07/31 03:01:22;;;;;;;5.62;5.12;;;;;;;14.98;92.68;100073.84;2217103;79;33120;-63
2022/07/31 03:04:24;;;;;;;5.72;5.22;;;;;;;15.12;92.76;100093.56;2224696;79;29874;-63
2022/07/31 03:07:25;;;;;;;6.03;4.75;;;;;;;15.14;92.69;100090.27;2225287;80;27625;-63
2022/07/31 03:10:26;;;;;;;7.08;5.80;;;;;;;15.14;92.80;100088.92;2200541;80;29039;-63
2022/07/31 03:13:29;;;;;;;9.98;5.03;;;;;;;15.14;92.74;100097.02;2225046;80;31376;-63
2022/07/31 03:16:31;;;;;;;6.62;4.95;;;;;;;15.14;92.81;100091.63;2224638;80;33227;-63
2022/07/31 03:19:34;;;;;;;7.22;4.92;;;;;;;15.16;92.84;100099.13;2225080;80;29063;-63
2022/07/31 03:22:36;;;;;;;5.92;5.25;;;;;;;15.17;92.82;100097.65;2225034;80;27687;-63
2022/07/31 03:25:38;;;;;;;8.25;5.83;;;;;;;15.16;92.81;100100.47;2200550;80;28386;-63
2022/07/31 03:28:40;;;;;;;11.35;5.75;;;;;;;15.18;92.88;100094.48;2225479;79;32233;-63
2022/07/31 03:31:41;;;;;;;6.85;5.33;;;;;;;15.22;92.68;100104.56;2249599;79;33075;-62
2022/07/31 03:34:42;;;;;;;7.97;5.58;;;;;;;15.10;92.57;100076.62;2249469;79;29390;-62
2022/07/31 03:37:44;;;;;;;9.88;5.58;;;;;;;15.10;92.57;100076.62;2249722;79;27700;-63
2022/07/31 03:40:47;;;;;;;6.78;5.65;;;;;;;15.24;92.88;100100.77;2249139;79;29539;-63
2022/07/31 03:43:50;;;;;;;6.87;6.17;;;;;;;15.25;92.83;100102.99;2249396;79;31205;-63
2022/07/31 03:46:52;;;;;;;9.98;6.65;;;;;;;15.27;92.83;100103.75;2249463;79;33092;-63
2022/07/31 03:49:54;;;;;;;8.65;6.00;;;;;;;15.27;92.73;100102.40;2249115;79;29913;-63
2022/07/31 03:52:57;;;;;;;8.23;6.40;;;;;;;15.29;92.90;100099.95;2249572;79;27632;-63
2022/07/31 03:55:59;;;;;;;8.63;7.10;;;;;;;15.30;92.78;100090.88;2249554;79;29533;-63
2022/07/31 03:59:03;;;;;;;8.60;7.65;;;;;;;15.31;92.84;100094.43;2256699;78;32316;-63
2022/07/31 04:02:06;;;;;;;10.70;6.95;;;;;;;15.34;92.81;100096.44;2229553;79;33040;-64
2022/07/31 04:05:09;;;;;;;12.47;7.70;;;;;;;15.34;92.81;100096.44;2269292;78;29843;-63
2022/07/31 04:08:10;;;;;;;10.48;7.17;;;;;;;15.36;92.73;100099.52;2269361;78;27754;-63
2022/07/31 04:11:11;;;;;;;11.35;7.37;;;;;;;15.37;92.83;100095.34;2269398;78;28249;-63
2022/07/31 04:14:13;;;;;;;16.93;9.15;;;;;;;15.39;92.85;100094.75;2269145;78;30904;-63
2022/07/31 04:17:14;;;;;;;8.88;7.87;;;;;;;15.42;92.85;100092.30;2268931;78;33032;-63
2022/07/31 04:20:17;;;;;;;9.95;7.25;;;;;;;15.44;92.83;100089.88;2269137;78;28957;-63
2022/07/31 04:23:18;;;;;;;11.38;7.80;;;;;;;15.44;92.74;100093.05;2269335;78;27625;-63
2022/07/31 04:26:20;;;;;;;11.33;7.80;;;;;;;15.45;92.68;100092.08;2269615;78;29636;-63
2022/07/31 04:29:22;;;;;;;13.85;8.13;;;;;;;15.26;92.58;100064.23;2269498;78;31751;-63
2022/07/31 04:32:24;;;;;;;10.32;7.95;;;;;;;15.34;92.50;100074.84;2269321;78;32983;-63
2022/07/31 04:35:25;;;;;;;8.98;7.55;;;;;;;15.34;92.50;100074.84;2269541;78;29941;-63
2022/07/31 04:38:26;;;;;;;8.98;8.08;;;;;;;15.49;92.70;100102.53;2268829;78;28200;-63
2022/07/31 04:41:28;;;;;;;10.93;8.35;;;;;;;15.51;92.63;100098.39;2269252;78;29937;-63
2022/07/31 04:44:30;;;;;;;12.53;8.50;;;;;;;15.53;92.54;100096.44;2269160;78;30924;-63
2022/07/31 04:47:31;;;;;;;16.25;8.73;;;;;;;15.53;92.54;100096.44;2269042;78;34204;-64
2022/07/31 04:50:32;;;;;;;12.33;8.40;;;;;;;15.58;92.76;100085.30;2269093;78;28931;-63
2022/07/31 04:53:33;;;;;;;10.30;8.20;;;;;;;15.61;92.67;100091.82;2269147;78;27609;-63
2022/07/31 04:56:36;;;;;;;10.13;8.33;;;;;;;15.62;92.71;100086.80;2269173;78;28547;-63
2022/07/31 04:59:37;;;;;;;11.40;9.08;;;;;;;15.65;92.65;100086.55;2268632;77;31017;-63
2022/07/31 05:02:39;;;;;;;14.03;8.80;;;;;;;15.65;92.53;100090.12;2268803;78;33056;-63
2022/07/31 05:05:44;;;;;;;15.38;8.85;;;;;;;15.68;92.57;100090.38;2269313;78;28932;-63
2022/07/31 05:08:44;;;;;;;13.55;8.98;;;;;;;15.72;92.59;100089.67;2269268;78;28181;-63
2022/07/31 05:11:47;;;;;;;13.18;9.28;;;;;;;15.72;92.42;100089.17;2269365;78;29827;-63
2022/07/31 05:14:48;;;;;;;13.93;8.93;;;;;;;15.74;92.37;100090.39;2269402;78;31733;-63
2022/07/31 05:17:49;;;;;;;12.82;9.08;;;;;;;15.75;92.32;100088.07;2269356;78;33395;-63
2022/07/31 05:20:51;;;;;;;10.40;9.25;;;;;;;15.78;92.41;100079.74;2269737;78;29750;-63
2022/07/31 05:23:54;;;;;;;14.95;10.60;;;;;;;15.80;92.31;100081.84;2269432;78;27795;-63
2022/07/31 05:26:55;;;;;;;11.00;9.38;;;;;;;15.82;92.21;100076.31;2269268;78;28642;-62
2022/07/31 05:29:56;;;;;;;11.38;9.50;;;;;;;15.85;92.31;100079.70;2269682;78;31960;-63
2022/07/31 05:32:58;;;;;;;13.62;8.78;;;;;;;15.90;92.26;100084.75;2269285;78;32939;-63
2022/07/31 05:36:00;;;;;;;15.55;10.05;;;;;;;15.91;92.16;100084.62;2269443;78;29667;-63
2022/07/31 05:39:01;;;;;;;19.02;10.15;;;;;;;15.93;92.19;100084.02;2268985;78;27765;-63
2022/07/31 05:42:03;;;;;;;17.12;11.08;;;;;;;15.99;92.12;100087.24;2269211;78;28838;-63
2022/07/31 05:45:06;;;;;;;14.87;9.95;;;;;;;15.99;91.95;100089.44;2269192;78;31287;-62
2022/07/31 05:48:08;;;;;;;16.80;10.95;;;;;;;16.02;91.99;100084.31;2269212;78;32956;-63
2022/07/31 05:51:11;;;;;;;17.45;10.75;;;;;;;16.08;92.21;100084.70;2269357;78;29387;-63
2022/07/31 05:54:13;;;;;;;15.43;11.27;;;;;;;16.15;92.37;100083.74;2269396;78;27594;-63
2022/07/31 05:57:14;;;;;;;21.37;11.20;;;;;;;16.21;92.23;100091.39;2269401;78;29057;-63
2022/07/31 06:00:16;;;;;;;19.45;11.18;;;;;;;16.27;92.18;100091.87;2269091;78;31504;-62
2022/07/31 06:03:26;;;;;;;16.60;11.00;;;;;;;16.29;91.99;100089.45;2268806;78;33011;-63
2022/07/31 06:06:27;;;;;;;14.10;12.20;;;;;;;16.32;91.91;100085.13;2269451;78;29830;-62
2022/07/31 06:09:29;;;;;;;14.03;10.00;;;;;;;16.33;91.70;100086.01;2269330;78;27673;-63
2022/07/31 06:12:31;;;;;;;17.73;10.30;;;;;;;16.32;91.47;100089.19;2268864;78;28691;-63
2022/07/31 06:15:33;;;;;;;14.00;10.15;;;;;;;16.33;91.46;100085.50;2269173;78;31080;-62
2022/07/31 06:18:34;;;;;;;12.25;9.80;;;;;;;16.35;91.36;100096.22;2268811;78;34152;-63
2022/07/31 06:21:36;;;;;;;13.65;10.35;;;;;;;16.37;91.41;100096.45;2269231;78;29671;-63
2022/07/31 06:24:37;;;;;;;12.37;10.13;;;;;;;16.39;91.47;100096.33;2269435;78;27621;-62
2022/07/31 06:27:40;;;;;;;14.10;10.20;;;;;;;16.47;91.65;100097.08;2269156;78;28661;-62
2022/07/31 06:30:42;;;;;;;26.10;10.63;;;;;;;16.52;91.68;100092.19;2269362;78;31374;-63
2022/07/31 06:33:44;;;;;;;14.73;9.80;;;;;;;16.56;91.45;100096.38;2268743;78;34171;-62
2022/07/31 06:36:45;;;;;;;12.23;9.25;;;;;;;16.63;91.61;100096.77;2268810;78;30433;-62
2022/07/31 06:39:47;;;;;;;14.05;9.80;;;;;;;16.70;91.68;100095.31;2269328;78;27642;-62
2022/07/31 06:42:48;;;;;;;13.83;9.60;;;;;;;16.79;91.75;100102.69;2237652;79;28768;-62
2022/07/31 06:45:50;;;;;;;15.55;9.95;;;;;;;16.88;91.63;100100.25;2268771;78;32442;-63
2022/07/31 06:48:51;;;;;;;14.43;9.88;;;;;;;16.97;91.54;100096.31;2269260;78;33376;-62
2022/07/31 06:51:52;;;;;;;16.82;9.53;;;;;;;17.06;91.52;100099.29;2243410;78;29378;-63
2022/07/31 06:54:54;;;;;;;13.40;9.08;;;;;;;17.13;91.32;100086.48;2269255;78;27997;-62
2022/07/31 06:57:56;;;;;;;12.55;9.40;;;;;;;17.23;91.18;100089.79;2269016;78;29228;-63
2022/07/31 07:00:57;;;;;;;11.20;8.55;;;;;;;17.31;91.05;100088.69;2268016;78;31148;-62
2022/07/31 07:03:59;;;;;;;12.88;9.20;;;;;;;17.36;90.66;100090.53;2242009;79;32965;-63
2022/07/31 07:07:00;;;;;;;13.18;8.33;;;;;;;17.41;90.49;100092.86;2256352;78;29087;-63
2022/07/31 07:10:04;;;;;;;9.93;8.30;;;;;;;17.45;90.40;100092.98;2241899;79;27607;-63
2022/07/31 07:13:07;;;;;;;11.57;8.40;;;;;;;17.49;90.03;100086.81;2256453;78;29079;-63
2022/07/31 07:16:09;;;;;;;11.65;7.85;;;;;;;17.53;89.88;100088.29;2241748;79;31059;-63
2022/07/31 07:19:11;;;;;;;12.60;7.92;;;;;;;17.58;89.79;100087.39;2256497;78;33053;-63
2022/07/31 07:22:12;;;;;;;12.45;7.17;;;;;;;17.62;89.69;100081.59;2205939;79;29905;-63
2022/07/31 07:25:14;;;;;;;11.97;7.28;;;;;;;17.69;89.64;100087.86;2162684;80;27640;-65
2022/07/31 07:28:17;;;;;;;13.03;7.65;;;;;;;17.74;89.52;100085.64;2225609;80;28731;-63
2022/07/31 07:31:18;;;;;;;13.35;7.58;;;;;;;17.81;89.58;100088.19;2173456;80;31062;-64
2022/07/31 07:34:20;;;;;;;8.05;7.22;;;;;;;17.89;89.40;100090.25;2226296;79;33885;-64
2022/07/31 07:37:21;;;;;;;8.80;6.95;;;;;;;17.94;89.03;100084.47;2201999;80;29814;-64
2022/07/31 07:40:24;;;;;;;10.95;7.97;;;;;;;18.01;89.00;100081.63;2226036;80;27696;-63
2022/07/31 07:43:26;;;;;;;11.57;7.25;;;;;;;18.06;88.71;100083.45;2202075;80;28672;-63
2022/07/31 07:46:28;;;;;;;12.05;7.12;;;;;;;18.12;88.46;100085.63;2225768;80;45418;-64
2022/07/31 07:49:29;;;;;;;10.68;7.45;;;;;;;18.19;88.44;100085.48;2205870;79;34150;-64
2022/07/31 07:52:31;;;;;;;11.38;6.83;;;;;;;18.27;88.42;100087.53;2242427;79;29080;-63
2022/07/31 07:55:32;;;;;;;14.78;6.35;;;;;;;18.33;87.68;100084.79;2242407;79;27615;-63
2022/07/31 07:58:34;;;;;;;9.33;6.72;;;;;;;18.39;87.72;100080.20;2242416;79;28490;-63
2022/07/31 08:01:35;;;;;;;11.78;7.47;;;;;;;18.50;87.71;100083.34;2229829;79;31456;-63
2022/07/31 08:04:37;;;;;;;10.58;7.05;;;;;;;18.63;87.70;100082.64;2218309;79;32749;-63
2022/07/31 08:07:39;;;;;;;8.63;6.40;;;;;;;18.75;87.47;100081.19;2218706;80;29453;-62
2022/07/31 08:10:42;;;;;;;13.88;7.00;;;;;;;18.88;86.76;100085.05;2218796;79;27628;-62
2022/07/31 08:13:45;;;;;;;10.40;6.25;;;;;;;18.98;87.10;100085.50;2218596;79;28464;-63
2022/07/31 08:16:46;;;;;;;9.08;6.22;;;;;;;19.09;86.54;100089.98;2218890;80;31532;-62
2022/07/31 08:19:47;;;;;;;8.28;5.58;;;;;;;19.20;86.73;100084.91;2215455;80;33359;-62
2022/07/31 08:22:48;;;;;;;8.85;5.97;;;;;;;19.31;85.88;100085.83;2201967;80;30196;-62
2022/07/31 08:25:50;;;;;;;15.65;7.12;;;;;;;19.41;85.82;100091.66;2201821;80;28275;-63
2022/07/31 08:28:51;;;;;;;9.45;5.25;;;;;;;19.43;85.21;100092.38;2201880;80;29467;-62
2022/07/31 08:31:53;;;;;;;10.93;5.67;;;;;;;19.49;85.13;100095.52;2201788;80;31428;-61
2022/07/31 08:34:55;;;;;;;6.62;5.40;;;;;;;19.52;85.09;100088.45;2201575;80;33060;-61
2022/07/31 08:37:56;;;;;;;9.28;5.05;;;;;;;19.55;84.70;100090.89;2202322;80;29352;-62
2022/07/31 08:40:57;;;;;;;7.72;4.70;;;;;;;19.56;84.31;100092.09;2202697;80;27676;-62
2022/07/31 08:43:58;;;;;;;5.95;4.25;;;;;;;19.56;84.01;100090.73;2202065;80;28910;-62
2022/07/31 08:47:00;;;;;;;5.65;4.72;;;;;;;19.55;83.39;100089.02;2202311;80;31640;-62
2022/07/31 08:50:04;;;;;;;6.25;4.17;;;;;;;19.51;83.13;100097.11;2201963;80;33118;-62
2022/07/31 08:53:06;;;;;;;9.30;4.45;;;;;;;19.50;83.33;100099.95;2202274;80;29036;-61
2022/07/31 08:56:08;;;;;;;11.18;4.50;;;;;;;19.50;82.31;100094.03;2201902;80;27660;-61
2022/07/31 08:59:09;;;;;;;7.60;4.37;;;;;;;19.55;82.81;100090.89;2201930;80;28639;-61
2022/07/31 09:02:12;;;;;;;8.30;4.22;;;;;;;19.68;82.59;100088.77;2242262;78;31366;-61
2022/07/31 09:05:15;;;;;;;5.97;3.95;;;;;;;19.79;82.02;100088.27;2269542;78;34217;-60
2022/07/31 09:08:17;;;;;;;7.28;4.35;;;;;;;19.92;81.53;100088.03;2269270;78;29435;-62
2022/07/31 09:11:18;;;;;;;4.55;3.95;;;;;;;20.16;82.12;100083.52;2242081;79;27710;-62
2022/07/31 09:14:33;;;;;;;8.43;3.35;;;;;;;20.46;81.48;100081.62;2242271;79;29183;-62
2022/07/31 09:17:35;;;;;;;4.35;3.92;;;;;;;20.73;80.90;100075.92;2225227;78;31091;-62
2022/07/31 09:20:36;;;;;;;5.03;3.62;;;;;;;21.04;80.57;100076.53;2241492;79;34161;-62
2022/07/31 09:23:45;;;;;;;8.83;3.87;;;;;;;21.28;80.51;100072.91;2241866;79;29104;-62
2022/07/31 09:26:47;;;;;;;7.42;3.55;;;;;;;21.54;79.81;100068.47;2241712;79;27620;-63
2022/07/31 09:29:48;;;;;;;5.25;3.55;;;;;;;21.76;78.25;100072.30;2201744;80;29906;-63
2022/07/31 09:32:50;;;;;;;6.17;3.27;;;;;;;21.92;78.51;100064.27;2269334;78;31292;-62
2022/07/31 09:35:51;;;;;;;4.97;3.00;;;;;;;22.22;78.42;100059.93;2241325;79;34149;-62
2022/07/31 09:38:55;;;;;;;8.45;3.67;;;;;;;22.64;78.34;100059.23;2270317;78;29972;-62
2022/07/31 09:41:56;;;;;;;3.58;2.50;;;;;;;22.86;77.25;100052.88;2240836;79;27700;-62
2022/07/31 09:44:57;;;;;;;5.80;2.80;;;;;;;22.86;75.26;100055.61;2270093;78;29689;-61
2022/07/31 09:48:05;;;;;;;4.40;2.42;;;;;;;22.94;74.56;100058.89;2241473;79;31383;-62
2022/07/31 09:51:07;;;;;;;6.45;2.58;;;;;;;23.01;74.50;100056.70;2270338;78;33043;-63
2022/07/31 09:54:25;;;;;;;6.10;2.52;;;;;;;23.14;74.65;100064.46;2200300;80;28398;-63
2022/07/31 09:57:27;;;;;;;5.78;2.70;;;;;;;23.22;72.56;100051.37;2269799;78;27630;-62
2022/07/31 10:00:29;;;;;;;4.10;2.02;;;;;;;23.32;73.49;100056.17;2200251;80;28498;-63
2022/07/31 10:03:30;;;;;;;5.28;2.30;;;;;;;23.35;72.20;100050.87;2230390;78;31253;-62
2022/07/31 10:06:34;;;;;;;3.98;2.05;;;;;;;23.38;71.08;100055.18;2220841;80;33445;-61
2022/07/31 10:09:39;;;;;;;5.87;2.83;;;;;;;23.39;70.81;100045.95;2220885;80;28607;-62
2022/07/31 10:12:42;;;;;;;6.08;2.30;;;;;;;23.50;71.83;100054.68;2221017;80;27652;-62
2022/07/31 10:15:47;;;;;;;6.30;2.30;;;;;;;23.65;71.52;100060.37;2220995;80;28578;-62
2022/07/31 10:18:54;;;;;;;7.42;2.65;;;;;;;23.72;70.45;100061.08;2220377;80;30784;-62
2022/07/31 10:22:00;;;;;;;6.60;2.40;;;;;;;23.73;70.12;100060.05;2220320;80;33169;-61
2022/07/31 10:25:02;;;;;;;4.47;2.45;;;;;;;23.78;69.89;100053.55;2227729;79;29083;-61
2022/07/31 10:28:06;;;;;;;4.60;2.30;;;;;;;23.75;68.02;100060.22;2227624;79;27656;-61
2022/07/31 10:31:11;;;;;;;4.78;2.95;;;;;;;23.66;67.86;100066.19;2227687;79;28657;-61
2022/07/31 10:34:14;;;;;;;;;;;;;;;23.50;66.77;100064.25;2230150;79;30416;-61
2022/07/31 10:37:24;;;;;;;4.22;2.62;;;;;;;23.46;67.30;100068.36;2226907;79;32859;-62
2022/07/31 10:40:41;;;;;;;4.80;2.52;;;;;;;23.55;68.44;100063.77;2226358;79;29697;-62
2022/07/31 10:43:56;;;;;;;2.95;2.40;;;;;;;23.62;66.97;100062.06;2227757;79;27586;-61
2022/07/31 10:46:57;;;;;;;4.80;1.82;;;;;;;23.71;66.76;100058.00;2200350;79;28758;-62
2022/07/31 10:49:59;;;;;;;6.62;1.85;;;;;;;23.86;66.58;100048.09;2227028;79;31170;-62
2022/07/31 10:53:12;;;;;;;3.40;1.67;;;;;;;23.97;66.10;100045.58;2226880;79;32958;-63
2022/07/31 10:56:13;;;;;;;3.58;2.02;;;;;;;23.97;64.38;100045.05;2226927;79;29387;-63
2022/07/31 10:59:15;;;;;;;3.95;1.70;;;;;;;24.01;64.30;100048.30;2227221;79;27665;-61
2022/07/31 11:02:34;;;;;;;7.22;2.00;;;;;;;24.00;64.05;100043.84;2243880;78;29652;-62
2022/07/31 11:05:36;;;;;;;3.05;2.17;;;;;;;24.11;64.63;100044.89;2269482;78;30848;-61
2022/07/31 11:08:46;;;;;;;4.80;1.92;;;;;;;24.22;64.15;100040.97;2269437;78;32983;-61
2022/07/31 11:11:48;;;;;;;3.12;2.22;;;;;;;24.33;64.27;100041.09;2269491;78;29533;-61
2022/07/31 11:14:51;;;;;;;2.20;1.70;;;;;;;24.41;62.23;100040.23;2269458;78;27964;-61
2022/07/31 11:17:53;;;;;;;1.98;1.67;;;;;;;24.48;62.37;100044.00;2269310;78;29360;-61
2022/07/31 11:21:03;;;;;;;4.33;2.20;;;;;;;24.56;62.23;100030.80;2269095;78;31881;-61
2022/07/31 11:24:19;;;;;;;4.47;1.90;;;;;;;24.62;61.12;100033.36;2270290;78;33615;-61
2022/07/31 11:27:32;;;;;;;3.87;1.80;;;;;;;24.67;59.62;100027.69;2269454;78;29326;-61
2022/07/31 11:30:34;;;;;;;5.47;2.00;;;;;;;24.73;60.20;100027.56;2269283;78;27693;-61
2022/07/31 11:33:42;;;;;;;3.95;1.45;;;;;;;24.77;60.16;100026.16;2269470;78;30010;-60
2022/07/31 11:36:45;;;;;;;2.10;1.65;;;;;;;24.80;58.92;100015.38;2184943;81;32614;-69
2022/07/31 11:39:51;;;;;;;3.67;1.75;;;;;;;24.86;59.35;100030.59;2184776;81;33159;-71
2022/07/31 11:42:53;;;;;;;2.72;1.67;;;;;;;24.88;58.47;100024.42;2185015;81;29385;-70
2022/07/31 11:45:55;;;;;;;5.87;1.30;;;;;;;24.98;57.55;100028.83;2185168;81;27732;-67
2022/07/31 11:48:57;;;;;;;4.78;1.82;;;;;;;25.06;58.43;100017.84;2159819;81;28642;-69
2022/07/31 11:52:08;;;;;;;3.25;1.45;;;;;;;25.22;58.43;100016.90;2184678;81;31231;-67
2022/07/31 11:55:13;;;;;;;4.47;2.05;;;;;;;25.34;57.31;100006.39;2184870;81;33824;-73
2022/07/31 11:58:17;;;;;;;1.40;1.30;;;;;;;25.34;56.45;100009.97;2170207;81;30286;-71
2022/07/31 12:01:30;;;;;;;1.80;1.67;;;;;;;25.43;56.31;100012.18;2164390;80;27296;-69
2022/07/31 12:04:31;;;;;;;1.35;1.25;;;;;;;25.51;56.23;100012.64;2229602;79;28684;-67
2022/07/31 12:07:36;;;;;;;4.10;1.10;;;;;;;25.52;53.76;100008.87;2231365;79;31099;-65
2022/07/31 12:10:39;;;;;;;4.90;1.25;;;;;;;25.50;53.53;100004.61;2231871;79;33046;-66
2022/07/31 12:13:49;;;;;;;4.20;1.32;;;;;;;25.49;50.69;100014.71;2231713;79;29336;-66
2022/07/31 12:16:50;;;;;;;2.75;1.42;;;;;;;25.44;53.19;100013.05;2232390;79;27673;-67
2022/07/31 12:19:52;;;;;;;3.72;1.40;;;;;;;25.44;53.22;100011.14;2232471;79;29316;-66
2022/07/31 12:23:00;;;;;;;3.17;1.70;;;;;;;25.44;52.62;100013.05;2231875;79;31301;-67
2022/07/31 12:26:02;;;;;;;1.87;1.30;;;;;;;25.45;52.17;100015.59;2232000;79;34096;-66
2022/07/31 12:29:09;;;;;;;3.00;1.62;;;;;;;25.46;51.46;100015.09;2232092;79;29320;-66
2022/07/31 12:32:11;;;;;;;1.65;1.22;;;;;;;25.50;52.27;100011.47;2231897;79;27717;-68
2022/07/31 12:35:12;;;;;;;1.62;1.00;;;;;;;25.56;52.33;100011.59;2232459;79;28654;-68
2022/07/31 12:38:26;;;;;;;2.37;1.07;;;;;;;25.60;51.20;100019.80;2232351;79;31842;-68
2022/07/31 12:41:29;;;;;;;4.87;1.40;;;;;;;25.55;50.29;100007.14;2232037;79;32945;-66
2022/07/31 12:44:30;;;;;;;4.05;1.30;;;;;;;25.44;49.97;100015.26;2232102;79;29325;-67
2022/07/31 12:47:33;;;;;;;1.10;1.07;;;;;;;25.33;49.01;100019.23;2232323;79;27697;-66
2022/07/31 12:50:35;;;;;;;2.75;1.35;;;;;;;25.23;49.47;100016.40;2232227;79;29477;-65
2022/07/31 12:53:36;;;;;;;1.32;1.20;;;;;;;25.16;48.98;100014.36;2231634;79;31050;-65
2022/07/31 12:56:39;;;;;;;1.70;1.20;;;;;;;25.07;49.71;100010.47;2232160;79;32988;-65
2022/07/31 12:59:41;;;;;;;1.37;1.25;;;;;;;25.06;49.81;100012.86;2232199;79;29947;-67
2022/07/31 13:02:43;;;;;;;1.55;1.10;;;;;;;25.07;48.75;100017.31;2231978;79;27747;-68
2022/07/31 13:05:45;;;;;;;2.90;1.05;;;;;;;24.96;49.39;100008.97;2232164;79;29349;-66
2022/07/31 13:08:46;;;;;;;1.20;1.05;;;;;;;24.88;49.42;100026.30;2232152;79;30993;-66
2022/07/31 13:11:48;;;;;;;2.92;1.25;;;;;;;24.82;49.44;100020.17;2231931;79;33932;-66
2022/07/31 13:14:49;;;;;;;1.35;1.10;;;;;;;24.82;49.67;100020.17;2231841;79;30280;-66
2022/07/31 13:17:51;;;;;;;1.52;1.10;;;;;;;24.84;48.55;100016.21;2232188;79;27632;-66
2022/07/31 13:20:52;;;;;;;1.77;1.10;;;;;;;24.84;48.63;100009.36;2231778;79;28703;-67
2022/07/31 13:23:54;;;;;;;3.92;1.32;;;;;;;24.83;48.28;100008.15;2232173;79;31811;-66
2022/07/31 13:26:57;;;;;;;2.95;1.05;;;;;;;24.82;47.85;100006.47;2232023;79;32932;-66
2022/07/31 13:29:58;;;;;;;1.32;1.22;;;;;;;24.77;48.78;100006.97;2248423;78;29346;-67
2022/07/31 13:33:00;;;;;;;4.40;1.27;;;;;;;24.76;48.67;100009.38;2205385;80;27820;-61
2022/07/31 13:36:02;;;;;;;0.90;0.90;;;;;;;24.72;47.84;100000.66;2165463;82;28721;-60
2022/07/31 13:39:04;;;;;;;2.75;1.20;;;;;;;24.66;48.19;99994.48;2205404;80;31468;-61
2022/07/31 13:42:09;;;;;;;2.50;1.10;;;;;;;24.61;47.75;99992.80;2165253;82;33081;-62
2022/07/31 13:45:10;;;;;;;2.05;1.10;;;;;;;24.57;47.77;99995.02;2165365;82;29328;-60
2022/07/31 13:48:11;;;;;;;2.22;1.30;;;;;;;24.52;47.90;99998.81;2206138;80;27621;-61
2022/07/31 13:51:13;;;;;;;3.12;1.30;;;;;;;24.50;47.57;99989.05;2164962;82;29114;-62
2022/07/31 13:54:15;;;;;;;1.72;1.17;;;;;;;24.48;48.31;99988.39;2205533;80;31892;-60
2022/07/31 13:57:17;;;;;;;1.22;0.95;;;;;;;24.42;46.96;99982.58;2171619;80;34287;-60
2022/07/31 14:00:19;;;;;;;3.22;1.20;;;;;;;24.38;47.08;99980.38;2201349;80;29380;-59
2022/07/31 14:03:20;;;;;;;4.53;1.40;;;;;;;24.32;47.66;99980.55;2228453;78;27690;-62
2022/07/31 14:06:22;;;;;;;1.95;1.20;;;;;;;24.29;47.93;99979.53;2269160;78;28641;-60